Terminal Aerodrome Forecast
Issued by NWS

Home | Current Version | Previous Version | Text Only | Print | Product List | Glossary On
Versions: 1 2 3 4 5 6 7 8 9 10 11 12 13 14 15
361
FTUS43 KEAX 200908 AAI
TAFMKC
TAF AMD
KMKC 200908Z 2009/2106 11007KT P6SM VCSH SCT015 BKN050
     FM201030 12006KT P6SM OVC020
     FM201300 VRB05KT P6SM OVC008
     FM201500 23007KT P6SM OVC010
     FM201900 26010KT P6SM BKN040=

USA.gov is the U.S. government's official web portal to all federal, state and local government web resources and services.